createdAt,value
2023-01-19T00:01:33.104Z,2.46
2023-01-19T00:04:01.074Z,2.46
2023-01-19T00:06:29.073Z,2.46
2023-01-19T00:08:57.009Z,2.47
2023-01-19T00:11:25.045Z,2.49
2023-01-19T00:13:53.797Z,2.51
2023-01-19T00:16:23.480Z,2.53
2023-01-19T00:18:52.474Z,2.54
2023-01-19T00:21:21.883Z,2.57
2023-01-19T00:23:51.337Z,2.59
2023-01-19T00:26:21.187Z,2.60
2023-01-19T00:28:50.536Z,2.61
2023-01-19T00:31:20.880Z,2.61
2023-01-19T00:33:51.591Z,2.64
2023-01-19T00:36:19.832Z,2.65
2023-01-19T00:38:47.873Z,2.65
2023-01-19T00:41:16.682Z,2.66
2023-01-19T00:43:44.948Z,2.69
2023-01-19T00:46:12.872Z,2.65
2023-01-19T00:48:40.793Z,2.63
2023-01-19T00:51:08.601Z,2.65
2023-01-19T00:53:36.461Z,2.64
2023-01-19T00:56:04.566Z,2.64
2023-01-19T00:58:32.477Z,2.63
2023-01-19T01:01:03.872Z,2.62
2023-01-19T01:03:33.084Z,2.60
2023-01-19T01:06:01.212Z,2.57
2023-01-19T01:08:31.113Z,2.55
2023-01-19T01:10:59.066Z,2.51
2023-01-19T01:13:28.324Z,2.52
2023-01-19T01:15:57.568Z,2.50
2023-01-19T01:18:26.007Z,2.48
2023-01-19T01:21:00.998Z,2.48
2023-01-19T01:23:28.860Z,2.48
2023-01-19T01:25:56.760Z,2.50
2023-01-19T01:28:24.572Z,2.49
2023-01-19T01:30:56.549Z,2.48
2023-01-19T01:33:41.395Z,2.49
2023-01-19T01:36:11.969Z,2.50
2023-01-19T01:38:41.548Z,2.47
2023-01-19T01:41:10.661Z,2.49
2023-01-19T01:43:47.449Z,2.52
2023-01-19T01:46:17.500Z,2.50
2023-01-19T01:48:54.299Z,2.52
2023-01-19T01:51:46.301Z,2.53
2023-01-19T01:54:17.300Z,2.57
2023-01-19T01:56:48.093Z,2.61
2023-01-19T01:59:29.477Z,2.59
2023-01-19T02:02:20.308Z,2.58
2023-01-19T02:04:56.329Z,2.62
2023-01-19T02:07:58.696Z,2.63
2023-01-19T02:10:45.120Z,2.69
2023-01-19T02:13:20.256Z,2.72
2023-01-19T02:15:51.059Z,2.72
2023-01-19T02:18:21.611Z,2.70
2023-01-19T02:21:07.822Z,2.71
2023-01-19T02:23:40.828Z,2.74
2023-01-19T02:26:10.866Z,2.75
2023-01-19T02:28:43.174Z,2.73
2023-01-19T02:31:11.602Z,2.70
2023-01-19T02:33:39.527Z,2.69
2023-01-19T02:36:11.056Z,2.70
2023-01-19T02:38:40.221Z,2.72
2023-01-19T02:41:11.539Z,2.77
2023-01-19T02:43:41.821Z,2.80
2023-01-19T02:46:09.635Z,2.84
2023-01-19T02:48:37.836Z,2.82
2023-01-19T02:51:15.438Z,2.75
2023-01-19T02:53:52.465Z,2.71
2023-01-19T02:56:36.415Z,2.69
2023-01-19T02:59:15.753Z,2.75
2023-01-19T03:02:00.683Z,2.79
2023-01-19T03:04:39.846Z,2.79
2023-01-19T03:07:14.412Z,2.79
2023-01-19T03:09:52.786Z,2.76
2023-01-19T03:12:36.024Z,2.78
2023-01-19T03:15:15.710Z,2.79
2023-01-19T03:17:47.846Z,2.80
2023-01-19T03:20:22.758Z,2.83
2023-01-19T03:23:00.802Z,2.85
2023-01-19T03:25:34.774Z,2.82
2023-01-19T03:28:04.385Z,2.81
2023-01-19T03:30:40.558Z,2.83
2023-01-19T03:33:14.873Z,2.88
2023-01-19T03:35:47.037Z,2.91
2023-01-19T03:38:20.125Z,2.92
2023-01-19T03:40:49.220Z,2.91
2023-01-19T03:43:18.916Z,2.90
2023-01-19T03:45:47.603Z,2.93
2023-01-19T03:48:16.032Z,2.93
2023-01-19T03:50:43.946Z,2.89
2023-01-19T03:53:14.705Z,2.86
2023-01-19T03:55:45.821Z,2.80
2023-01-19T03:58:13.886Z,2.78
2023-01-19T04:00:41.864Z,2.81
2023-01-19T04:03:18.202Z,2.82
2023-01-19T04:05:46.198Z,2.82
2023-01-19T04:08:14.269Z,2.83
2023-01-19T04:10:42.460Z,2.83
2023-01-19T04:13:10.619Z,2.83
2023-01-19T04:15:39.040Z,2.81
2023-01-19T04:18:07.269Z,2.79
2023-01-19T04:20:35.129Z,2.78
2023-01-19T04:23:03.546Z,2.80
2023-01-19T04:25:31.735Z,2.79
2023-01-19T04:27:59.538Z,2.78
2023-01-19T04:30:28.109Z,2.77
2023-01-19T04:32:56.471Z,2.75
2023-01-19T04:35:24.275Z,2.74
2023-01-19T04:37:52.077Z,2.74
2023-01-19T04:40:20.105Z,2.75
2023-01-19T04:42:48.007Z,2.75
2023-01-19T04:45:15.859Z,2.77
2023-01-19T04:47:43.811Z,2.78
2023-01-19T04:50:12.139Z,2.78
2023-01-19T04:52:40.072Z,2.79
2023-01-19T04:55:08.722Z,2.79
2023-01-19T04:57:36.830Z,2.79
2023-01-19T05:00:06.929Z,2.82
2023-01-19T05:02:35.292Z,2.80
2023-01-19T05:05:03.934Z,2.79
2023-01-19T05:07:31.967Z,2.78
2023-01-19T05:10:02.816Z,2.79
2023-01-19T05:12:31.698Z,2.78
2023-01-19T05:15:00.279Z,2.78
2023-01-19T05:17:28.674Z,2.75
2023-01-19T05:19:56.506Z,2.74
2023-01-19T05:22:24.575Z,2.74
2023-01-19T05:24:52.774Z,2.74
2023-01-19T05:27:20.834Z,2.75
2023-01-19T05:29:48.892Z,2.75
2023-01-19T05:32:16.908Z,2.74
2023-01-19T05:34:44.779Z,2.72
2023-01-19T05:37:12.707Z,2.73
2023-01-19T05:39:40.477Z,2.76
2023-01-19T05:42:08.398Z,2.78
2023-01-19T05:44:36.139Z,2.78
2023-01-19T05:47:04.462Z,2.80
2023-01-19T05:49:32.278Z,2.82
2023-01-19T05:52:00.230Z,2.80
2023-01-19T05:54:28.147Z,2.76
2023-01-19T05:56:55.973Z,2.77
2023-01-19T05:59:24.479Z,2.77
2023-01-19T06:01:53.213Z,2.77
2023-01-19T06:04:21.529Z,2.79
2023-01-19T06:06:50.268Z,2.79
2023-01-19T06:09:18.456Z,2.80
2023-01-19T06:11:46.938Z,2.82
2023-01-19T06:14:15.010Z,2.84
2023-01-19T06:16:43.154Z,2.86
2023-01-19T06:19:11.266Z,2.88
2023-01-19T06:21:39.331Z,2.88
2023-01-19T06:24:07.319Z,2.87
2023-01-19T06:26:35.149Z,2.88
2023-01-19T06:29:03.042Z,2.86
2023-01-19T06:31:30.956Z,2.85
2023-01-19T06:33:58.865Z,2.82
2023-01-19T06:36:26.697Z,2.77
2023-01-19T06:38:54.544Z,2.74
2023-01-19T06:41:22.381Z,2.74
2023-01-19T06:43:50.216Z,2.77
2023-01-19T06:46:18.087Z,2.79
2023-01-19T06:48:46.612Z,2.77
2023-01-19T06:51:14.535Z,2.70
2023-01-19T06:53:42.509Z,2.71
2023-01-19T06:56:10.365Z,2.73
2023-01-19T06:58:38.612Z,2.73
2023-01-19T07:01:07.495Z,2.72
2023-01-19T07:03:37.351Z,2.73
2023-01-19T07:06:08.815Z,2.75
2023-01-19T07:08:37.826Z,2.77
2023-01-19T07:11:23.656Z,2.75
2023-01-19T07:13:56.718Z,2.81
2023-01-19T07:16:27.395Z,2.83
2023-01-19T07:18:55.336Z,2.82
2023-01-19T07:21:23.682Z,2.83
2023-01-19T07:23:53.149Z,2.81
2023-01-19T07:26:21.858Z,2.79
2023-01-19T07:28:50.249Z,2.76
2023-01-19T07:31:19.163Z,2.78
2023-01-19T07:33:47.247Z,2.81
2023-01-19T07:36:15.492Z,2.84
2023-01-19T07:38:43.413Z,2.86
2023-01-19T07:41:11.783Z,2.89
2023-01-19T07:43:39.794Z,2.92
2023-01-19T07:46:08.546Z,2.94
2023-01-19T07:48:36.783Z,3.01
2023-01-19T07:51:10.435Z,3.05
2023-01-19T07:53:40.163Z,3.05
2023-01-19T07:56:08.733Z,3.05
2023-01-19T07:58:36.533Z,3.06
2023-01-19T08:01:12.952Z,3.06
2023-01-19T08:03:40.863Z,3.07
2023-01-19T08:06:22.331Z,3.09
2023-01-19T08:08:50.668Z,3.13
2023-01-19T08:11:18.548Z,3.16
2023-01-19T08:13:46.635Z,3.23
2023-01-19T08:16:14.475Z,3.30
2023-01-19T08:18:42.762Z,3.34
2023-01-19T08:21:10.551Z,3.37
2023-01-19T08:23:38.443Z,3.35
2023-01-19T08:26:30.130Z,3.37
2023-01-19T08:29:00.748Z,3.42
2023-01-19T08:31:29.200Z,3.44
2023-01-19T08:33:58.055Z,3.43
2023-01-19T08:36:26.385Z,3.43
2023-01-19T08:38:54.317Z,3.40
2023-01-19T08:41:22.470Z,3.33
2023-01-19T08:43:50.397Z,3.32
2023-01-19T08:46:20.987Z,3.32
2023-01-19T08:48:49.537Z,3.34
2023-01-19T08:51:18.097Z,3.38
2023-01-19T08:53:46.008Z,3.36
2023-01-19T08:56:14.616Z,3.33
2023-01-19T08:58:46.671Z,3.39
2023-01-19T09:01:18.785Z,3.42
2023-01-19T09:03:47.060Z,3.46
2023-01-19T09:06:18.503Z,3.52
2023-01-19T09:08:47.456Z,3.64
2023-01-19T09:11:17.613Z,3.78
2023-01-19T09:13:46.092Z,3.90
2023-01-19T09:16:16.064Z,4.01
2023-01-19T09:18:46.223Z,4.11
2023-01-19T09:21:15.293Z,4.13
2023-01-19T09:23:43.338Z,4.15
2023-01-19T09:26:11.380Z,4.11
2023-01-19T09:28:39.863Z,4.17
2023-01-19T09:31:09.180Z,4.21
2023-01-19T09:33:37.249Z,4.27
2023-01-19T09:36:05.888Z,4.30
2023-01-19T09:38:34.235Z,4.31
2023-01-19T09:41:02.454Z,4.26
2023-01-19T09:43:45.528Z,4.23
2023-01-19T09:46:18.024Z,4.25
2023-01-19T09:48:52.946Z,4.30
2023-01-19T09:51:32.731Z,4.31
2023-01-19T09:54:14.828Z,4.33
2023-01-19T09:56:44.496Z,4.36
2023-01-19T09:59:19.386Z,4.40
2023-01-19T10:02:12.562Z,4.44
2023-01-19T10:04:58.736Z,4.48
2023-01-19T10:08:03.768Z,4.47
2023-01-19T10:10:32.801Z,4.47
2023-01-19T10:13:22.863Z,4.47
2023-01-19T10:16:03.117Z,4.44
2023-01-19T10:18:51.673Z,4.40
2023-01-19T10:21:51.508Z,4.43
2023-01-19T10:24:25.825Z,4.42
2023-01-19T10:26:56.102Z,4.42
2023-01-19T10:29:38.645Z,4.45
2023-01-19T10:32:09.034Z,4.45
2023-01-19T10:34:37.328Z,4.46
2023-01-19T10:37:32.639Z,4.51
2023-01-19T10:40:09.401Z,4.56
2023-01-19T10:42:38.865Z,4.57
2023-01-19T10:45:30.191Z,4.57
2023-01-19T10:48:01.254Z,4.54
2023-01-19T10:50:39.960Z,4.53
2023-01-19T10:53:21.155Z,4.54
2023-01-19T10:56:11.791Z,4.56
2023-01-19T10:58:40.773Z,4.55
2023-01-19T11:01:18.385Z,4.56
2023-01-19T11:03:46.631Z,4.60
2023-01-19T11:06:16.403Z,4.63
2023-01-19T11:08:46.993Z,4.65
2023-01-19T11:11:15.189Z,4.68
2023-01-19T11:13:44.083Z,4.70
2023-01-19T11:16:27.753Z,4.71
2023-01-19T11:18:57.437Z,4.72
2023-01-19T11:21:28.001Z,4.75
2023-01-19T11:24:02.495Z,4.78
2023-01-19T11:26:40.888Z,4.78
2023-01-19T11:29:24.407Z,4.77
2023-01-19T11:31:54.427Z,4.80
2023-01-19T11:34:31.983Z,4.84
2023-01-19T11:37:16.048Z,4.88
2023-01-19T11:39:53.519Z,4.89
2023-01-19T11:42:22.405Z,4.89
2023-01-19T11:45:11.987Z,4.92
2023-01-19T11:47:45.728Z,4.91
2023-01-19T11:50:23.145Z,4.85
2023-01-19T11:53:16.764Z,4.79
2023-01-19T11:56:08.345Z,4.79
2023-01-19T11:58:42.412Z,4.78
2023-01-19T12:01:22.406Z,4.74
2023-01-19T12:04:14.436Z,4.74
2023-01-19T12:06:47.823Z,4.72
2023-01-19T12:09:22.501Z,4.70
2023-01-19T12:11:56.626Z,4.65
2023-01-19T12:14:32.120Z,4.60
2023-01-19T12:17:06.042Z,4.60
2023-01-19T12:19:40.958Z,4.56
2023-01-19T12:22:15.876Z,4.51
2023-01-19T12:24:59.932Z,4.47
2023-01-19T12:27:40.908Z,4.48
2023-01-19T12:30:29.714Z,4.50
2023-01-19T12:33:35.151Z,4.51
2023-01-19T12:36:06.075Z,4.52
2023-01-19T12:38:36.343Z,4.51
2023-01-19T12:41:33.039Z,4.54
2023-01-19T12:44:16.398Z,4.54
2023-01-19T12:47:05.370Z,4.54
2023-01-19T12:49:38.229Z,4.53
2023-01-19T12:52:34.560Z,4.52
2023-01-19T12:55:21.529Z,4.47
2023-01-19T12:57:55.580Z,4.46
2023-01-19T13:00:23.539Z,4.44
2023-01-19T13:02:58.804Z,4.43
2023-01-19T13:05:39.476Z,4.38
2023-01-19T13:08:07.930Z,4.40
2023-01-19T13:10:54.630Z,4.38
2023-01-19T13:13:30.083Z,4.38
2023-01-19T13:16:20.164Z,4.37
2023-01-19T13:18:53.133Z,4.37
2023-01-19T13:21:45.220Z,4.41
2023-01-19T13:24:22.606Z,4.44
2023-01-19T13:26:50.466Z,4.36
2023-01-19T13:29:35.448Z,4.32
2023-01-19T13:32:16.019Z,4.27
2023-01-19T13:34:47.734Z,4.25
2023-01-19T13:37:19.693Z,4.23
2023-01-19T13:39:51.676Z,4.17
2023-01-19T13:42:30.729Z,4.15
2023-01-19T13:45:02.262Z,4.09
2023-01-19T13:47:42.678Z,4.05
2023-01-19T13:50:21.041Z,4.07
2023-01-19T13:52:51.488Z,4.11
2023-01-19T13:55:20.667Z,4.17
2023-01-19T13:57:50.873Z,4.21
2023-01-19T14:00:25.410Z,4.24
2023-01-19T14:02:55.641Z,4.26
2023-01-19T14:05:26.284Z,4.30
2023-01-19T14:08:05.001Z,4.31
2023-01-19T14:10:35.564Z,4.32
2023-01-19T14:13:06.711Z,4.27
2023-01-19T14:15:34.936Z,4.22
2023-01-19T14:18:17.879Z,4.24
2023-01-19T14:20:52.566Z,4.25
2023-01-19T14:23:42.132Z,4.23
2023-01-19T14:26:37.963Z,4.25
2023-01-19T14:29:24.431Z,4.27
2023-01-19T14:32:12.702Z,4.27
2023-01-19T14:34:41.299Z,4.24
2023-01-19T14:37:47.147Z,4.21
2023-01-19T14:40:18.427Z,4.18
2023-01-19T14:42:55.441Z,4.17
2023-01-19T14:45:35.303Z,4.12
2023-01-19T14:48:04.978Z,4.12
2023-01-19T14:50:36.834Z,4.12
2023-01-19T14:53:17.321Z,4.11
2023-01-19T14:55:51.044Z,4.09
2023-01-19T14:58:21.381Z,4.09
2023-01-19T15:00:49.928Z,4.10
2023-01-19T15:03:17.927Z,4.07
2023-01-19T15:05:47.471Z,4.06
2023-01-19T15:08:18.709Z,4.03
2023-01-19T15:10:46.751Z,4.03
2023-01-19T15:13:21.025Z,4.04
2023-01-19T15:15:50.351Z,4.07
2023-01-19T15:18:25.450Z,4.06
2023-01-19T15:20:55.313Z,4.08
2023-01-19T15:23:23.125Z,4.09
2023-01-19T15:25:52.037Z,4.10
2023-01-19T15:28:20.423Z,4.11
2023-01-19T15:30:48.299Z,4.09
2023-01-19T15:33:24.385Z,4.07
2023-01-19T15:35:53.027Z,4.07
2023-01-19T15:38:21.000Z,4.09
2023-01-19T15:40:51.423Z,4.09
2023-01-19T15:43:21.087Z,4.10
2023-01-19T15:46:02.128Z,4.09
2023-01-19T15:48:30.038Z,4.10
2023-01-19T15:50:58.079Z,4.10
2023-01-19T15:53:27.305Z,4.08
2023-01-19T16:00:40.190Z,3.94
2023-01-19T16:03:08.614Z,3.89
2023-01-19T16:05:42.863Z,3.86
2023-01-19T16:08:11.951Z,3.84
2023-01-19T16:10:41.606Z,3.81
2023-01-19T16:17:41.168Z,3.80
2023-01-19T16:20:12.868Z,3.78
2023-01-19T16:22:42.162Z,3.81
2023-01-19T16:25:10.156Z,3.81
2023-01-19T16:27:38.272Z,3.81
2023-01-19T16:30:06.922Z,3.85
2023-01-19T16:32:36.460Z,3.86
2023-01-19T16:35:05.018Z,3.81
2023-01-19T16:37:32.949Z,3.77
2023-01-19T16:40:00.906Z,3.77
2023-01-19T16:42:28.700Z,3.78
2023-01-19T16:44:56.499Z,3.77
2023-01-19T16:47:24.467Z,3.73
2023-01-19T16:49:52.353Z,3.71
2023-01-19T16:52:20.222Z,3.70
2023-01-19T16:54:48.174Z,3.72
2023-01-19T16:57:16.774Z,3.74
2023-01-19T16:59:45.215Z,3.75
2023-01-19T17:02:13.279Z,3.79
2023-01-19T17:04:41.116Z,3.79
2023-01-19T17:07:09.301Z,3.75
2023-01-19T17:09:38.191Z,3.77
2023-01-19T17:12:09.167Z,3.81
2023-01-19T17:14:38.285Z,3.85
2023-01-19T17:17:09.360Z,3.86
2023-01-19T17:19:37.187Z,3.88
2023-01-19T17:22:04.979Z,3.85
2023-01-19T17:24:32.894Z,3.79
2023-01-19T17:27:00.707Z,3.69
2023-01-19T17:29:28.871Z,3.65
2023-01-19T17:31:56.660Z,3.62
2023-01-19T17:34:24.464Z,3.58
2023-01-19T17:36:52.249Z,3.56
2023-01-19T17:39:20.032Z,3.51
2023-01-19T17:41:50.235Z,3.46
2023-01-19T17:44:18.203Z,3.42
2023-01-19T17:46:45.936Z,3.42
2023-01-19T17:49:13.690Z,3.39
2023-01-19T17:51:41.472Z,3.35
2023-01-19T17:54:11.293Z,3.31
2023-01-19T17:56:41.270Z,3.26
2023-01-19T17:59:09.963Z,3.22
2023-01-19T18:01:40.133Z,3.20
2023-01-19T18:08:52.655Z,3.13
2023-01-19T18:11:21.797Z,3.12
2023-01-19T18:18:24.208Z,3.12
2023-01-19T18:20:52.190Z,3.09
2023-01-19T18:23:19.988Z,3.10
2023-01-19T18:25:48.461Z,3.12
2023-01-19T18:28:16.481Z,3.14
2023-01-19T18:30:44.428Z,3.12
2023-01-19T18:33:12.291Z,3.14
2023-01-19T18:35:40.596Z,3.15
2023-01-19T18:38:08.571Z,3.14
2023-01-19T18:49:46.553Z,3.02
2023-01-19T18:56:50.927Z,3.00
2023-01-19T18:59:18.892Z,2.95
2023-01-19T19:01:48.112Z,2.93
2023-01-19T19:04:16.927Z,2.95
2023-01-19T19:06:45.026Z,2.93
2023-01-19T19:09:13.083Z,2.90
2023-01-19T19:11:41.483Z,2.90
2023-01-19T19:14:09.923Z,2.90
2023-01-19T19:21:13.087Z,2.88
2023-01-19T19:23:41.025Z,2.85
2023-01-19T19:26:11.387Z,2.81
2023-01-19T19:28:40.544Z,2.79
2023-01-19T19:31:13.710Z,2.76
2023-01-19T19:33:42.384Z,2.74
2023-01-19T19:36:11.870Z,2.76
2023-01-19T19:38:44.518Z,2.76
2023-01-19T19:41:14.925Z,2.77
2023-01-19T19:43:43.980Z,2.75
2023-01-19T19:46:14.127Z,2.70
2023-01-19T19:48:42.509Z,2.71
2023-01-19T19:55:59.262Z,2.78
2023-01-19T19:58:31.023Z,2.78
2023-01-19T20:10:06.675Z,2.76
2023-01-19T20:12:40.039Z,2.77
2023-01-19T20:15:13.034Z,2.75
2023-01-19T20:17:45.031Z,2.74
2023-01-19T20:20:15.311Z,2.74
2023-01-19T20:22:46.034Z,2.73
2023-01-19T20:25:17.996Z,2.72
2023-01-19T20:27:50.042Z,2.71
2023-01-19T20:30:22.431Z,2.70
2023-01-19T20:32:54.063Z,2.70
2023-01-19T20:35:24.969Z,2.68
2023-01-19T20:37:56.075Z,2.68
2023-01-19T20:40:27.485Z,2.68
2023-01-19T20:42:58.054Z,2.72
2023-01-19T20:45:30.079Z,2.72
2023-01-19T20:59:42.822Z,2.79
2023-01-19T21:02:16.183Z,2.77
2023-01-19T21:04:44.332Z,2.75
2023-01-19T21:07:12.262Z,2.76
2023-01-19T21:09:40.312Z,2.75
2023-01-19T21:12:09.739Z,2.73
2023-01-19T21:14:38.498Z,2.68
2023-01-19T21:17:06.370Z,2.63
2023-01-19T21:19:34.246Z,2.58
2023-01-19T21:22:02.142Z,2.54
2023-01-19T21:24:30.099Z,2.53
2023-01-19T21:26:57.899Z,2.53
2023-01-19T21:29:25.707Z,2.53
2023-01-19T21:31:53.603Z,2.50
2023-01-19T21:34:21.580Z,2.47
2023-01-19T21:36:49.523Z,2.44
2023-01-19T21:39:17.677Z,2.43
2023-01-19T21:41:45.610Z,2.44
2023-01-19T21:44:13.728Z,2.44
2023-01-19T21:46:41.872Z,2.41
2023-01-19T21:49:16.536Z,2.40
2023-01-19T21:51:45.555Z,2.40
2023-01-19T21:54:14.702Z,2.39
2023-01-19T21:56:43.375Z,2.39
2023-01-19T21:59:14.990Z,2.35
2023-01-19T22:01:45.257Z,2.34
2023-01-19T22:04:13.105Z,2.32
2023-01-19T22:06:41.142Z,2.29
2023-01-19T22:09:09.169Z,2.27
2023-01-19T22:11:37.168Z,2.24
2023-01-19T22:14:05.271Z,2.22
2023-01-19T22:16:33.196Z,2.22
2023-01-19T22:19:02.504Z,2.23
2023-01-19T22:21:33.315Z,2.22
2023-01-19T22:24:03.889Z,2.21
2023-01-19T22:26:34.488Z,2.18
2023-01-19T22:29:04.369Z,2.13
2023-01-19T22:31:32.899Z,2.12
2023-01-19T22:34:01.009Z,2.10
2023-01-19T22:36:31.837Z,2.10
2023-01-19T22:39:02.087Z,2.10
2023-01-19T22:41:32.920Z,2.10
2023-01-19T22:44:03.253Z,2.10
2023-01-19T22:46:33.554Z,2.09
2023-01-19T22:49:02.882Z,2.07
2023-01-19T22:51:32.797Z,2.05
2023-01-19T22:54:01.476Z,2.04
2023-01-19T22:56:31.856Z,2.04
2023-01-19T22:59:00.605Z,2.08
2023-01-19T23:01:38.614Z,2.08
2023-01-19T23:04:08.623Z,2.08
2023-01-19T23:06:37.506Z,2.09
2023-01-19T23:09:08.231Z,2.10
2023-01-19T23:11:41.753Z,2.12
2023-01-19T23:14:14.890Z,2.11
2023-01-19T23:16:42.641Z,2.09
2023-01-19T23:19:12.538Z,2.10
2023-01-19T23:21:41.092Z,2.10
2023-01-19T23:24:09.226Z,2.11
2023-01-19T23:26:40.060Z,2.09
2023-01-19T23:29:13.516Z,2.08
2023-01-19T23:31:47.536Z,2.07
2023-01-19T23:34:16.294Z,2.06
2023-01-19T23:36:44.881Z,2.04
2023-01-19T23:39:16.135Z,2.01
2023-01-19T23:41:43.990Z,2.01
2023-01-19T23:44:12.205Z,2.00
2023-01-19T23:46:40.147Z,1.99
2023-01-19T23:49:08.142Z,1.97
2023-01-19T23:51:36.181Z,1.97
2023-01-19T23:54:04.239Z,1.96
2023-01-19T23:56:34.466Z,1.97
2023-01-19T23:59:06.110Z,1.97
